Terminal Aerodrome Forecast
Issued by NWS Boston, MA

Home | Current Version | Previous Version | Text Only | Print | Product List | Glossary On
Versions: 1 2 3 4 5 6 7 8 9 10 11 12 13 14 15 16 17 18 19 20 21 22 23 24 25 26 27 28 29 30 31 32 33 34 35 36 37 38 39 40 41 42 43 44 45 46 47 48
005
FTUS41 KBOX 291507 AAA
TAFPVD
TAF AMD
KPVD 291507Z 2915/3012 24009KT P6SM FEW030 BKN160 OVC300
     FM291900 21014G25KT P6SM SCT200
     FM300400 21011G21KT P6SM BKN080=

USA.gov is the U.S. government's official web portal to all federal, state and local government web resources and services.